ENOL

Ørland Airport

Ørland, Norway
METAR ENOL 181620Z 26012KT 9999 FEW012TCU SCT045 05/02 Q1016 NOSIG
Observed Flight Rules
Dec-18 @ 16:20 UTC (22 minutes ago) Visual Flight Rules
Wind Visibility Clouds
260° at 12 knots 10,000+ meters
  • Few at 1,200' AGL
  • Scattered at 4,500' AGL
Temperatures Readings
Current 5°C / 41°F
Dewpoint 2°C / 36°F
Humidity 81%
Altimeter 30" Hg
Pressure 1016 hPa
Elevation 7
METAR ENOL 181620Z 26012KT 9999 FEW012TCU SCT045 05/02 Q1016 NOSIG
Observed Flight Rules
Dec-18 @ 16:20 UTC
(22 minutes ago)
VFR
Wind Visibility
260° at 12 knots 10,000+ meters
Clouds
  • Few at 1,200' AGL
  • Scattered at 4,500' AGL
Temperature Dewpoint
5°C / 41°F 2°C / 36°F
Humidity Altimeter Pressure
81% 30" Hg 1016 hPa